Time;durP1;ratioP1;P1;durP2;ratioP2;P2;SDS_P1;SDS_P2;PMS_P1;PMS_P2;Temp;Humidity;BMP_temperature;BMP_pressure;BME280_temperature;BME280_humidity;BME280_pressure;Samples;Min_cycle;Max_cycle;Signal;HPM_P1;HPM_P2
2021/09/29 00:02:09;;;;;;;12.50;4.30;;;;;;;15.69;52.71;101535.48;117290;1187;21858;-61
2021/09/29 00:04:38;;;;;;;17.10;4.80;;;;;;;15.68;52.66;101536.74;117341;1184;23553;-61
2021/09/29 00:07:07;;;;;;;17.10;5.20;;;;;;;15.65;52.71;101537.52;117318;1184;23673;-61
2021/09/29 00:09:35;;;;;;;17.00;4.30;;;;;;;15.64;52.75;101532.92;117278;1182;22714;-60
2021/09/29 00:12:03;;;;;;;14.10;5.10;;;;;;;15.60;52.81;101536.88;117354;1185;21864;-61
2021/09/29 00:14:32;;;;;;;15.20;5.00;;;;;;;15.57;52.79;101537.60;117352;1183;23562;-60
2021/09/29 00:17:01;;;;;;;13.70;5.10;;;;;;;15.57;52.74;101533.90;117378;1185;23545;-61
2021/09/29 00:19:30;;;;;;;13.40;4.90;;;;;;;15.56;52.75;101528.79;117317;1185;24315;-61
2021/09/29 00:21:58;;;;;;;11.90;4.60;;;;;;;15.55;52.80;101531.27;117193;1186;21888;-61
2021/09/29 00:24:27;;;;;;;14.00;4.80;;;;;;;15.54;52.75;101530.04;117127;1188;24237;-61
2021/09/29 00:26:56;;;;;;;15.40;4.40;;;;;;;15.56;52.77;101533.56;117313;1184;23560;-61
2021/09/29 00:29:24;;;;;;;14.30;5.40;;;;;;;15.55;52.74;101528.80;117349;1185;23544;-60
2021/09/29 00:31:52;;;;;;;19.90;5.30;;;;;;;15.56;52.80;101530.02;117322;1185;23543;-60
2021/09/29 00:34:33;;;;;;;10.70;4.90;;;;;;;15.54;52.73;101524.02;117290;1186;21847;-60
2021/09/29 00:37:01;;;;;;;16.50;5.70;;;;;;;15.51;52.78;101523.02;117332;1185;23531;-60
2021/09/29 00:39:29;;;;;;;13.80;4.50;;;;;;;15.51;52.78;101525.67;117322;1186;23544;-60
2021/09/29 00:41:57;;;;;;;15.70;5.50;;;;;;;15.50;52.67;101525.33;117364;1182;23566;-61
2021/09/29 00:44:26;;;;;;;14.70;4.00;;;;;;;15.47;52.73;101524.30;117284;1185;21868;-61
2021/09/29 00:46:55;;;;;;;16.40;4.70;;;;;;;15.46;52.71;101528.39;117330;1185;21861;-60
2021/09/29 00:49:23;;;;;;;16.60;4.80;;;;;;;15.44;52.73;101527.02;117339;1186;22999;-60
2021/09/29 00:51:51;;;;;;;15.40;5.70;;;;;;;15.42;52.80;101527.95;117335;1182;23542;-60
2021/09/29 00:54:20;;;;;;;14.70;5.10;;;;;;;15.41;52.77;101529.70;117396;1182;23579;-60
2021/09/29 00:56:51;;;;;;;11.70;4.60;;;;;;;15.40;52.76;101531.48;117317;1188;23557;-60
2021/09/29 00:59:19;;;;;;;15.00;5.00;;;;;;;15.39;52.77;101539.46;117316;1188;21855;-60
2021/09/29 01:01:47;;;;;;;18.40;5.20;;;;;;;15.37;52.84;101539.13;117287;1183;24211;-60
2021/09/29 01:04:15;;;;;;;16.00;5.30;;;;;;;15.37;52.81;101536.50;117380;1184;21849;-61
2021/09/29 01:07:07;;;;;;;19.70;5.80;;;;;;;15.33;52.78;101538.12;117337;1185;24272;-61
2021/09/29 01:09:44;;;;;;;14.50;4.60;;;;;;;15.32;52.80;101536.90;117305;1185;23553;-61
2021/09/29 01:12:24;;;;;;;20.80;5.00;;;;;;;15.30;52.83;101537.63;117324;1185;23602;-61
2021/09/29 01:14:52;;;;;;;13.00;5.40;;;;;;;15.29;52.82;101537.28;117297;1185;21855;-61
2021/09/29 01:17:23;;;;;;;26.00;5.30;;;;;;;15.26;52.85;101536.80;117306;1184;23608;-60
2021/09/29 01:20:09;;;;;;;23.90;5.60;;;;;;;15.24;52.88;101533.48;117316;1188;21858;-61
2021/09/29 01:23:08;;;;;;;13.10;4.40;;;;;;;15.23;52.84;101530.13;117347;1185;22916;-61
2021/09/29 01:25:47;;;;;;;19.30;5.50;;;;;;;15.22;52.81;101531.56;117476;1185;21857;-60
2021/09/29 01:28:17;;;;;;;13.30;5.80;;;;;;;15.21;52.91;101529.27;117328;1183;23560;-61
2021/09/29 01:30:45;;;;;;;19.70;5.00;;;;;;;15.20;52.96;101531.77;117326;1184;21867;-61
2021/09/29 01:33:13;;;;;;;12.40;4.90;;;;;;;15.19;52.82;101528.95;117096;1185;23545;-61
2021/09/29 01:35:42;;;;;;;16.90;5.50;;;;;;;15.16;52.93;101530.58;117181;1187;21859;-61
2021/09/29 01:38:10;;;;;;;15.60;5.30;;;;;;;15.14;52.93;101529.18;117143;1184;22749;-62
2021/09/29 01:40:39;;;;;;;14.90;4.40;;;;;;;15.13;52.85;101528.14;117363;1186;23547;-56
2021/09/29 01:43:07;;;;;;;19.90;4.70;;;;;;;15.10;52.96;101532.42;117399;1183;21855;-55
2021/09/29 01:45:36;;;;;;;13.10;5.20;;;;;;;15.09;52.94;101533.84;117308;1182;22623;-55
2021/09/29 01:48:05;;;;;;;15.00;6.20;;;;;;;15.07;52.97;101532.45;117348;1182;23560;-56
2021/09/29 01:50:33;;;;;;;17.70;5.20;;;;;;;15.05;52.94;101529.29;117384;1185;21864;-55
2021/09/29 01:53:02;;;;;;;13.70;4.90;;;;;;;15.04;52.90;101527.00;117356;1185;23567;-55
2021/09/29 01:55:30;;;;;;;14.20;5.40;;;;;;;15.00;52.99;101532.02;117397;1185;21857;-55
2021/09/29 01:57:59;;;;;;;18.60;5.50;;;;;;;14.99;52.97;101530.60;117344;1186;23566;-55
2021/09/29 02:00:27;;;;;;;14.90;5.00;;;;;;;14.95;53.15;101529.60;117358;1184;23866;-55
2021/09/29 02:03:00;;;;;;;16.30;6.40;;;;;;;14.92;53.24;101530.34;117353;1185;23542;-55
2021/09/29 02:05:30;;;;;;;16.50;5.30;;;;;;;14.90;53.21;101529.66;117308;1183;22964;-56
2021/09/29 02:07:59;;;;;;;15.10;5.30;;;;;;;14.89;53.19;101536.04;117333;1185;22902;-55
2021/09/29 02:10:27;;;;;;;21.30;6.30;;;;;;;14.89;53.25;101536.21;117343;1185;21908;-56
2021/09/29 02:12:58;;;;;;;18.70;6.60;;;;;;;14.90;53.24;101538.14;117334;1182;23569;-55
2021/09/29 02:15:26;;;;;;;10.50;5.40;;;;;;;14.89;53.20;101540.09;117310;1185;23569;-56
2021/09/29 02:17:54;;;;;;;15.70;5.80;;;;;;;14.90;53.23;101541.85;117320;1187;21864;-55
2021/09/29 02:20:22;;;;;;;13.90;5.10;;;;;;;14.88;53.29;101543.83;117290;1185;23544;-56
2021/09/29 02:22:51;;;;;;;17.00;5.60;;;;;;;14.86;53.29;101545.44;117279;1182;21859;-55
2021/09/29 02:25:19;;;;;;;16.40;6.20;;;;;;;14.84;53.35;101548.27;117193;1186;21849;-55
2021/09/29 02:27:47;;;;;;;13.20;5.90;;;;;;;14.86;53.34;101547.90;117288;1185;21874;-55
2021/09/29 02:30:16;;;;;;;18.40;6.30;;;;;;;14.85;53.35;101544.91;117328;1185;23544;-54
2021/09/29 02:32:44;;;;;;;15.60;6.00;;;;;;;14.83;53.32;101549.88;117311;1186;23569;-55
2021/09/29 02:35:13;;;;;;;18.20;5.50;;;;;;;14.82;53.40;101549.89;117157;1186;23813;-56
2021/09/29 02:37:41;;;;;;;17.20;5.80;;;;;;;14.82;53.39;101553.42;117288;1183;23545;-54
2021/09/29 02:40:10;;;;;;;15.80;5.70;;;;;;;14.82;53.40;101550.59;117294;1184;22822;-56
2021/09/29 02:42:40;;;;;;;;;;;;;;;14.80;53.43;101549.73;117346;1185;22928;-54
2021/09/29 02:45:09;;;;;;;11.50;5.50;;;;;;;14.78;53.45;101550.82;117327;1186;23553;-55
2021/09/29 02:47:37;;;;;;;15.20;5.20;;;;;;;14.76;53.50;101549.61;117374;1183;22061;-55
2021/09/29 02:50:05;;;;;;;18.40;6.20;;;;;;;14.75;53.47;101553.15;117298;1182;24702;-53
2021/09/29 02:52:34;;;;;;;17.90;6.10;;;;;;;14.74;53.52;101555.29;117346;1185;23560;-61
2021/09/29 02:55:03;;;;;;;15.40;5.20;;;;;;;14.72;53.58;101560.60;117327;1187;21896;-56
2021/09/29 02:57:32;;;;;;;20.90;6.20;;;;;;;14.73;53.53;101556.89;117339;1185;22132;-61
2021/09/29 03:00:00;;;;;;;19.80;6.20;;;;;;;14.72;53.46;101560.24;117422;1182;24163;-56
2021/09/29 03:02:29;;;;;;;14.30;5.00;;;;;;;14.71;53.49;101562.73;117338;1184;23439;-56
2021/09/29 03:04:57;;;;;;;16.70;5.60;;;;;;;14.70;53.50;101563.44;117207;1183;23587;-55
2021/09/29 03:07:25;;;;;;;14.20;5.80;;;;;;;14.69;53.51;101562.02;117308;1184;23544;-56
2021/09/29 03:09:53;;;;;;;15.10;5.90;;;;;;;14.69;53.40;101558.88;117269;1185;21874;-55
2021/09/29 03:12:22;;;;;;;13.90;6.40;;;;;;;14.69;53.45;101561.16;117325;1185;23010;-56
2021/09/29 03:14:50;;;;;;;12.90;4.60;;;;;;;14.68;53.37;101563.27;117317;1183;23547;-56
2021/09/29 03:17:19;;;;;;;13.40;5.60;;;;;;;14.68;53.37;101562.91;117339;1186;22724;-56
2021/09/29 03:19:47;;;;;;;16.10;5.40;;;;;;;14.65;53.46;101565.92;117362;1185;22822;-61
2021/09/29 03:22:15;;;;;;;16.90;5.60;;;;;;;14.65;53.52;101568.94;117353;1186;23521;-56
2021/09/29 03:24:43;;;;;;;12.80;5.70;;;;;;;14.64;53.43;101566.48;117159;1184;23569;-55
2021/09/29 03:27:12;;;;;;;14.40;5.70;;;;;;;14.62;53.55;101569.84;117354;1185;21845;-55
2021/09/29 03:29:40;;;;;;;15.10;5.80;;;;;;;14.61;53.50;101569.34;117277;1182;21928;-55
2021/09/29 03:32:08;;;;;;;12.20;5.30;;;;;;;14.61;53.53;101565.27;117305;1185;23458;-55
2021/09/29 03:34:36;;;;;;;15.10;5.30;;;;;;;14.61;53.44;101567.56;117319;1182;22622;-55
2021/09/29 03:37:04;;;;;;;19.40;6.40;;;;;;;14.59;53.48;101569.19;117336;1184;24002;-55
2021/09/29 03:39:32;;;;;;;12.50;5.60;;;;;;;14.57;53.49;101569.37;117395;1185;21872;-56
2021/09/29 03:42:01;;;;;;;16.20;5.20;;;;;;;14.55;53.59;101569.05;117306;1185;23531;-55
2021/09/29 03:44:29;;;;;;;17.90;6.30;;;;;;;14.53;53.54;101573.30;117348;1182;23543;-56
2021/09/29 03:46:58;;;;;;;12.50;5.60;;;;;;;14.52;53.48;101577.90;117346;1185;23451;-56
2021/09/29 03:49:26;;;;;;;18.10;5.90;;;;;;;14.54;53.54;101576.14;117326;1185;23557;-56
2021/09/29 03:52:00;;;;;;;17.40;5.00;;;;;;;14.53;53.63;101576.48;117318;1185;23556;-54
2021/09/29 03:54:31;;;;;;;14.50;5.70;;;;;;;14.53;53.51;101575.95;117311;1185;23667;-56
2021/09/29 03:57:00;;;;;;;14.60;5.20;;;;;;;14.52;53.52;101575.06;117392;1185;21846;-55
2021/09/29 03:59:28;;;;;;;17.00;6.10;;;;;;;14.51;53.53;101575.95;117310;1184;23544;-55
2021/09/29 04:01:57;;;;;;;10.90;4.90;;;;;;;14.52;53.58;101574.02;117312;1183;21865;-55
2021/09/29 04:04:26;;;;;;;13.80;5.30;;;;;;;14.51;53.54;101575.63;117357;1182;21850;-55
2021/09/29 04:06:56;;;;;;;13.30;5.20;;;;;;;14.48;53.61;101575.98;117319;1182;22817;-56
2021/09/29 04:09:24;;;;;;;16.20;5.40;;;;;;;14.46;53.52;101575.84;118037;1182;21847;-56
2021/09/29 04:11:55;;;;;;;11.50;5.80;;;;;;;14.44;53.58;101575.85;118218;1182;24149;-55
2021/09/29 04:14:24;;;;;;;18.10;6.50;;;;;;;14.43;53.49;101573.04;117370;1182;23544;-54
2021/09/29 04:16:52;;;;;;;12.90;5.40;;;;;;;14.41;53.51;101571.64;117410;1186;21863;-54
2021/09/29 04:19:20;;;;;;;15.50;6.70;;;;;;;14.41;53.50;101573.23;117366;1184;23572;-55
2021/09/29 04:21:49;;;;;;;14.00;5.80;;;;;;;14.42;53.61;101576.05;117331;1184;23557;-56
2021/09/29 04:24:17;;;;;;;16.30;7.00;;;;;;;14.41;53.58;101573.77;118081;1185;23554;-55
2021/09/29 04:26:49;;;;;;;12.80;5.70;;;;;;;14.40;53.63;101579.60;117314;1182;23668;-56
2021/09/29 04:29:17;;;;;;;17.30;6.40;;;;;;;14.41;53.68;101583.30;117312;1186;23532;-56
2021/09/29 04:31:45;;;;;;;14.40;5.40;;;;;;;14.42;53.64;101587.70;117295;1184;23443;-55
2021/09/29 04:34:14;;;;;;;10.10;5.70;;;;;;;14.43;53.58;101590.16;117281;1185;23547;-54
2021/09/29 04:36:42;;;;;;;19.70;6.90;;;;;;;14.44;53.65;101594.40;117329;1185;23442;-57
2021/09/29 04:39:15;;;;;;;10.70;5.70;;;;;;;14.43;53.68;101591.93;117322;1183;23590;-56
2021/09/29 04:41:43;;;;;;;15.20;6.10;;;;;;;14.47;53.70;101596.85;117321;1185;21857;-55
2021/09/29 04:44:11;;;;;;;17.00;6.70;;;;;;;14.45;53.57;101598.80;117356;1185;23542;-55
2021/09/29 04:46:40;;;;;;;14.20;5.90;;;;;;;14.45;53.69;101599.52;117373;1182;23587;-55
2021/09/29 04:49:08;;;;;;;13.30;6.60;;;;;;;14.46;53.68;101603.02;117347;1185;23532;-56
2021/09/29 04:51:37;;;;;;;16.20;6.40;;;;;;;14.47;53.61;101603.02;117391;1182;23531;-56
2021/09/29 04:54:06;;;;;;;15.30;6.20;;;;;;;14.50;53.80;101607.77;117320;1180;21915;-55
2021/09/29 04:56:34;;;;;;;16.90;7.00;;;;;;;14.53;53.77;101607.05;117413;1185;23544;-56
2021/09/29 04:59:03;;;;;;;16.20;7.40;;;;;;;14.52;53.83;101609.35;117367;1182;23541;-54
2021/09/29 05:01:31;;;;;;;17.10;6.80;;;;;;;14.55;53.86;101609.15;117286;1185;23544;-54
2021/09/29 05:04:00;;;;;;;16.80;6.90;;;;;;;14.58;53.88;101612.27;117300;1186;22524;-55
2021/09/29 05:06:28;;;;;;;10.80;6.00;;;;;;;14.62;53.94;101611.17;117268;1185;23566;-54
2021/09/29 05:08:57;;;;;;;18.20;6.50;;;;;;;14.65;53.97;101613.10;117254;1184;23541;-55
2021/09/29 05:11:39;;;;;;;13.10;7.20;;;;;;;14.70;54.00;101615.73;117250;1185;21858;-55
2021/09/29 05:14:08;;;;;;;15.20;6.70;;;;;;;14.75;53.92;101617.65;117207;1186;23547;-56
2021/09/29 05:16:36;;;;;;;15.30;6.60;;;;;;;14.80;53.91;101619.00;117340;1186;22661;-56
2021/09/29 05:19:04;;;;;;;17.00;6.70;;;;;;;14.83;53.89;101622.31;117312;1182;23605;-54
2021/09/29 05:21:33;;;;;;;12.80;6.70;;;;;;;14.86;53.94;101623.35;117276;1185;23558;-53
2021/09/29 05:24:01;;;;;;;12.20;6.60;;;;;;;14.88;54.03;101623.86;117289;1187;21901;-55
2021/09/29 05:26:30;;;;;;;11.40;6.50;;;;;;;14.94;54.07;101627.52;117362;1184;23575;-56
2021/09/29 05:29:00;;;;;;;20.20;7.40;;;;;;;14.99;54.17;101629.23;117344;1182;23534;-55
2021/09/29 05:31:28;;;;;;;16.60;7.80;;;;;;;15.05;54.18;101627.92;117303;1184;22964;-54
2021/09/29 05:33:56;;;;;;;16.50;6.90;;;;;;;15.14;54.19;101632.77;117374;1185;23544;-53
2021/09/29 05:36:25;;;;;;;15.20;7.90;;;;;;;15.27;54.05;101630.67;117311;1183;23570;-55
2021/09/29 05:38:53;;;;;;;14.30;6.70;;;;;;;15.34;54.21;101635.02;117283;1185;21859;-55
2021/09/29 05:41:21;;;;;;;17.40;7.30;;;;;;;15.46;54.18;101633.12;117293;1184;23466;-55
2021/09/29 05:43:50;;;;;;;16.70;7.80;;;;;;;15.57;54.20;101635.09;117335;1185;23540;-53
2021/09/29 05:46:18;;;;;;;14.30;7.70;;;;;;;15.67;54.22;101637.09;117358;1184;23569;-55
2021/09/29 05:48:47;;;;;;;13.40;6.70;;;;;;;15.76;54.21;101640.14;117343;1184;23566;-55
2021/09/29 05:51:15;;;;;;;17.40;7.60;;;;;;;15.82;54.26;101641.84;117299;1184;24159;-55
2021/09/29 05:53:43;;;;;;;15.50;8.10;;;;;;;15.92;54.33;101645.98;116954;1182;21850;-54
2021/09/29 05:56:13;;;;;;;16.70;7.70;;;;;;;16.01;54.30;101646.19;117246;1185;23532;-54
2021/09/29 05:58:42;;;;;;;13.60;7.70;;;;;;;16.11;54.41;101646.23;117394;1184;23560;-53
2021/09/29 06:01:11;;;;;;;15.60;9.70;;;;;;;16.22;54.34;101645.35;117336;1185;22939;-53
2021/09/29 06:03:39;;;;;;;17.50;10.90;;;;;;;16.34;54.36;101649.60;117323;1185;23420;-54
2021/09/29 06:06:08;;;;;;;21.50;10.10;;;;;;;16.47;54.45;101649.90;117289;1182;21856;-53
2021/09/29 06:08:53;;;;;;;19.60;8.30;;;;;;;16.64;54.36;101645.71;117236;1181;23531;-52
2021/09/29 06:11:22;;;;;;;16.00;7.50;;;;;;;16.76;54.44;101649.41;117345;1184;23568;-54
2021/09/29 06:13:51;;;;;;;18.00;10.60;;;;;;;16.88;54.47;101647.77;117323;1181;22951;-55
2021/09/29 06:16:43;;;;;;;26.20;12.20;;;;;;;17.02;54.36;101647.91;117297;1185;22919;-55
2021/09/29 06:19:14;;;;;;;16.70;9.30;;;;;;;17.14;54.33;101651.77;117315;1185;22617;-53
2021/09/29 06:21:43;;;;;;;17.50;8.80;;;;;;;17.25;54.39;101652.42;117297;1182;22182;-54
2021/09/29 06:24:12;;;;;;;14.70;7.50;;;;;;;17.39;54.34;101653.39;117276;1184;23541;-54
2021/09/29 06:26:40;;;;;;;14.10;7.90;;;;;;;17.45;54.42;101654.50;117320;1185;23567;-54
2021/09/29 06:29:08;;;;;;;13.10;7.90;;;;;;;17.54;54.38;101651.30;117253;1185;21856;-54
2021/09/29 06:31:39;;;;;;;11.10;7.80;;;;;;;17.66;54.45;101651.59;117342;1182;23567;-55
2021/09/29 06:34:08;;;;;;;19.60;8.60;;;;;;;17.83;54.48;101647.66;117216;1185;21899;-54
2021/09/29 06:36:36;;;;;;;16.00;8.00;;;;;;;18.00;54.62;101646.94;117265;1183;21861;-52
2021/09/29 06:39:04;;;;;;;16.40;8.10;;;;;;;18.15;54.70;101648.20;117251;1185;23541;-52
2021/09/29 06:41:32;;;;;;;13.90;7.70;;;;;;;18.30;54.65;101646.06;117297;1183;23567;-52
2021/09/29 06:44:01;;;;;;;12.60;8.00;;;;;;;18.46;54.52;101648.17;117337;1185;23544;-54
2021/09/29 06:46:29;;;;;;;14.40;8.10;;;;;;;18.65;54.56;101647.69;117349;1183;23919;-54
2021/09/29 06:48:58;;;;;;;16.00;7.50;;;;;;;18.86;54.40;101647.86;117352;1185;24002;-54
2021/09/29 06:51:26;;;;;;;12.50;7.00;;;;;;;18.96;54.35;101649.55;117248;1184;23544;-54
2021/09/29 06:53:54;;;;;;;11.80;7.30;;;;;;;19.06;54.34;101650.91;117023;1186;21860;-53
2021/09/29 06:56:23;;;;;;;13.70;7.50;;;;;;;19.15;54.41;101653.87;117248;1182;23569;-53
2021/09/29 06:58:52;;;;;;;14.10;6.80;;;;;;;19.24;54.55;101654.86;117352;1185;21860;-54
2021/09/29 07:01:20;;;;;;;12.30;6.80;;;;;;;19.38;54.66;101657.48;117307;1185;23534;-53
2021/09/29 07:03:50;;;;;;;13.60;7.00;;;;;;;19.51;54.63;101657.80;117355;1185;23601;-54
2021/09/29 07:06:18;;;;;;;11.10;6.00;;;;;;;19.61;54.67;101653.61;117259;1184;23542;-53
2021/09/29 07:08:46;;;;;;;14.70;5.80;;;;;;;19.75;54.64;101656.94;117251;1185;24159;-53
2021/09/29 07:11:19;;;;;;;16.50;6.80;;;;;;;19.89;54.71;101657.23;117222;1185;24152;-53
2021/09/29 07:13:48;;;;;;;17.20;6.90;;;;;;;20.05;54.71;101660.13;117259;1184;21901;-55
2021/09/29 07:16:18;;;;;;;15.30;6.20;;;;;;;20.21;54.72;101658.55;117308;1185;21849;-52
2021/09/29 07:18:50;;;;;;;16.70;6.70;;;;;;;20.41;54.80;101660.04;117297;1183;23534;-53
2021/09/29 07:21:18;;;;;;;11.90;6.10;;;;;;;20.59;54.70;101661.79;117324;1185;22937;-53
2021/09/29 07:23:47;;;;;;;11.50;6.80;;;;;;;20.70;54.53;101666.20;117333;1185;21856;-53
2021/09/29 07:26:15;;;;;;;12.00;6.30;;;;;;;20.84;54.57;101661.29;117276;1189;21855;-54
2021/09/29 07:28:44;;;;;;;11.50;5.90;;;;;;;21.01;54.64;101663.02;117305;1186;23637;-54
2021/09/29 07:31:12;;;;;;;13.60;6.60;;;;;;;21.19;54.72;101662.40;117322;1186;22620;-55
2021/09/29 07:33:41;;;;;;;12.80;5.80;;;;;;;21.38;54.70;101661.86;117476;1184;22623;-55
2021/09/29 07:36:11;;;;;;;9.30;5.60;;;;;;;21.53;54.75;101662.73;117329;1184;23556;-52
2021/09/29 07:38:40;;;;;;;11.10;6.10;;;;;;;21.68;54.60;101663.09;117350;1185;23449;-54
2021/09/29 07:41:08;;;;;;;12.10;7.00;;;;;;;21.82;54.59;101662.72;117322;1183;21920;-55
2021/09/29 07:43:37;;;;;;;11.20;5.70;;;;;;;21.97;54.55;101661.60;117350;1183;23442;-56
2021/09/29 07:46:05;;;;;;;13.00;5.20;;;;;;;22.16;54.39;101660.84;117353;1184;22205;-54
2021/09/29 07:48:33;;;;;;;15.30;5.80;;;;;;;22.35;54.42;101657.95;117353;1184;23633;-54
2021/09/29 07:51:02;;;;;;;11.10;5.70;;;;;;;22.48;54.44;101656.71;117344;1182;21920;-54
2021/09/29 07:53:31;;;;;;;14.00;6.10;;;;;;;22.56;54.49;101655.65;116943;1186;23569;-54
2021/09/29 07:55:59;;;;;;;13.00;5.70;;;;;;;22.69;54.51;101652.27;117232;1183;23759;-54
2021/09/29 07:58:27;;;;;;;12.80;6.20;;;;;;;22.82;54.44;101654.19;117342;1184;23544;-53
2021/09/29 08:01:00;;;;;;;9.30;5.40;;;;;;;22.90;54.40;101655.62;117347;1182;23429;-55
2021/09/29 08:03:30;;;;;;;12.20;5.80;;;;;;;22.95;54.31;101653.65;117360;1181;22169;-54
2021/09/29 08:06:02;;;;;;;9.40;4.90;;;;;;;23.03;54.29;101655.23;117271;1186;21856;-54
2021/09/29 08:08:52;;;;;;;7.40;4.80;;;;;;;23.15;54.17;101652.20;117286;1185;22176;-55
2021/09/29 08:11:20;;;;;;;9.00;5.10;;;;;;;23.22;54.10;101653.70;117325;1186;21899;-56
2021/09/29 08:13:49;;;;;;;14.80;5.50;;;;;;;23.26;54.03;101650.33;117275;1185;23566;-55
2021/09/29 08:16:17;;;;;;;12.20;5.10;;;;;;;23.35;53.94;101647.96;117272;1185;21858;-55
2021/09/29 08:18:59;;;;;;;11.40;5.10;;;;;;;23.46;53.91;101648.13;117295;1185;23544;-54
2021/09/29 08:21:29;;;;;;;11.00;4.50;;;;;;;23.62;53.88;101646.68;117403;1184;21857;-54
2021/09/29 08:24:06;;;;;;;9.60;5.80;;;;;;;23.77;53.95;101645.80;117268;1185;21902;-54
2021/09/29 08:32:03;;;;;;;11.30;5.60;;;;;;;24.18;53.67;101643.48;117349;1185;23640;-54
2021/09/29 08:34:41;;;;;;;12.00;5.20;;;;;;;24.29;53.79;101640.42;117307;1185;21863;-54
2021/09/29 08:44:57;;;;;;;12.00;5.00;;;;;;;24.67;53.53;101637.59;117326;1184;23544;-54
2021/09/29 08:47:40;;;;;;;10.90;4.60;;;;;;;24.81;53.67;101636.40;117318;1183;21870;-54
2021/09/29 08:50:16;;;;;;;8.80;4.20;;;;;;;24.91;53.56;101637.84;117304;1187;21855;-54
2021/09/29 08:53:12;;;;;;;14.20;4.80;;;;;;;24.99;53.34;101638.66;117350;1182;23823;-54
2021/09/29 09:17:27;;;;;;;11.90;3.80;;;;;;;25.53;53.23;101632.00;117335;1185;21889;-53
2021/09/29 09:20:14;;;;;;;8.30;3.80;;;;;;;25.74;53.15;101627.64;117362;1186;23545;-54
2021/09/29 09:22:43;;;;;;;12.80;4.10;;;;;;;25.94;53.03;101627.73;117372;1180;22905;-54
2021/09/29 09:25:11;;;;;;;11.60;4.70;;;;;;;26.05;52.97;101624.42;117377;1185;21892;-54
2021/09/29 09:27:45;;;;;;;12.10;4.30;;;;;;;26.04;52.75;101624.33;117318;1185;23547;-54
2021/09/29 09:30:28;;;;;;;14.40;4.60;;;;;;;25.97;52.55;101627.59;117367;1183;21859;-54
2021/09/29 09:33:00;;;;;;;15.00;5.00;;;;;;;25.89;52.39;101626.97;117330;1179;23574;-54
2021/09/29 09:35:41;;;;;;;12.10;4.60;;;;;;;25.81;52.39;101627.79;117354;1182;21918;-53
2021/09/29 09:38:24;;;;;;;;;;;;;;;25.68;52.09;101635.52;117372;1185;23523;-53
2021/09/29 09:40:59;;;;;;;11.30;4.70;;;;;;;25.33;51.83;101637.41;117358;1184;23442;-52
2021/09/29 09:43:29;;;;;;;14.00;5.10;;;;;;;25.02;51.65;101637.25;117362;1189;21853;-53
2021/09/29 09:46:02;;;;;;;10.20;4.60;;;;;;;24.77;51.72;101632.83;117312;1185;21978;-54
2021/09/29 09:48:30;;;;;;;12.20;4.10;;;;;;;24.69;51.92;101629.43;117341;1184;22907;-54
2021/09/29 09:51:04;;;;;;;11.50;4.30;;;;;;;24.70;52.16;101637.31;117334;1185;21879;-53
2021/09/29 09:53:35;;;;;;;14.50;4.80;;;;;;;24.81;52.20;101634.42;117386;1185;23535;-53
2021/09/29 09:56:16;;;;;;;11.90;5.00;;;;;;;24.94;52.22;101633.93;117308;1183;21845;-53
2021/09/29 09:58:46;;;;;;;15.50;5.10;;;;;;;25.12;52.30;101631.71;117076;1186;21866;-53
2021/09/29 10:01:16;;;;;;;13.50;4.70;;;;;;;25.24;52.40;101625.12;117336;1185;22625;-54
2021/09/29 10:03:47;;;;;;;14.60;5.40;;;;;;;25.45;52.35;101629.59;117324;1183;22988;-54
2021/09/29 10:06:16;;;;;;;15.80;5.10;;;;;;;25.68;52.27;101627.08;117342;1184;22989;-54
2021/09/29 10:09:08;;;;;;;15.50;4.90;;;;;;;25.88;52.36;101622.54;117343;1184;23566;-54
2021/09/29 10:28:19;;;;;;;15.20;4.50;;;;;;;26.76;51.82;101618.46;117354;1185;21855;-53
2021/09/29 10:31:11;;;;;;;12.50;4.50;;;;;;;26.74;51.68;101614.79;117306;1185;21859;-52
2021/09/29 10:33:45;;;;;;;12.00;4.10;;;;;;;26.80;51.79;101612.11;117223;1185;22845;-54
2021/09/29 10:48:05;;;;;;;11.30;3.60;;;;;;;27.94;51.79;101602.04;116959;1188;23573;-54
2021/09/29 11:07:35;;;;;;;27.50;4.80;;;;;;;28.76;51.06;101586.06;117064;1186;21854;-53
2021/09/29 11:30:04;;;;;;;8.90;3.70;;;;;;;26.76;50.28;101597.58;117190;1186;23547;-52
2021/09/29 11:32:36;;;;;;;11.90;3.20;;;;;;;26.31;50.33;101602.63;117220;1186;21905;-53
2021/09/29 12:11:43;;;;;;;;;;;;;;;23.61;50.13;101621.50;117228;1185;21922;-54
2021/09/29 12:14:16;;;;;;;11.20;4.10;;;;;;;23.55;50.08;101616.94;117299;1183;21848;-54
2021/09/29 12:16:44;;;;;;;7.70;3.60;;;;;;;23.46;50.01;101621.09;117306;1185;21983;-55
2021/09/29 12:19:35;;;;;;;10.80;4.60;;;;;;;23.34;50.03;101619.31;117460;1185;22169;-55
2021/09/29 12:22:07;;;;;;;12.10;4.50;;;;;;;23.23;50.00;101620.69;117326;1185;23545;-54
2021/09/29 12:27:27;;;;;;;12.30;4.40;;;;;;;23.00;50.25;101625.83;117323;1185;21857;-54
2021/09/29 12:30:20;;;;;;;13.40;5.10;;;;;;;22.89;50.12;101627.77;117326;1185;23547;-55
2021/09/29 12:35:52;;;;;;;22.30;4.90;;;;;;;22.67;50.15;101628.89;117302;1185;23467;-54
2021/09/29 12:38:22;;;;;;;25.30;6.40;;;;;;;22.55;50.13;101631.58;117382;1185;21858;-55
2021/09/29 12:40:50;;;;;;;12.60;4.80;;;;;;;22.48;50.08;101634.20;117369;1186;21892;-55
2021/09/29 12:43:19;;;;;;;16.10;5.40;;;;;;;22.42;50.10;101634.77;117350;1185;21862;-55
2021/09/29 12:45:49;;;;;;;13.50;5.40;;;;;;;22.33;50.02;101633.17;117288;1183;22630;-54
2021/09/29 12:48:21;;;;;;;13.40;5.40;;;;;;;22.29;50.04;101631.55;117313;1185;23534;-54
2021/09/29 12:50:59;;;;;;;16.30;6.70;;;;;;;22.29;49.97;101635.84;117264;1179;22092;-55
2021/09/29 12:53:46;;;;;;;12.90;5.40;;;;;;;22.26;49.96;101633.29;117247;1182;22857;-55
2021/09/29 12:56:18;;;;;;;15.50;4.70;;;;;;;22.19;49.91;101633.59;117074;1185;22834;-55
2021/09/29 12:58:46;;;;;;;14.40;5.40;;;;;;;22.13;50.01;101635.24;117325;1185;24193;-55
2021/09/29 13:01:15;;;;;;;18.60;6.60;;;;;;;22.06;50.00;101635.34;117267;1185;23482;-55
2021/09/29 13:03:44;;;;;;;105.20;70.30;;;;;;;21.98;50.06;101631.54;117304;1185;22872;-55
2021/09/29 13:06:12;;;;;;;775.20;569.60;;;;;;;21.94;50.18;101634.38;117323;1184;22830;-55
2021/09/29 13:08:41;;;;;;;506.30;368.20;;;;;;;21.97;50.45;101631.95;117291;1185;21919;-54
2021/09/29 13:11:10;;;;;;;297.80;209.60;;;;;;;22.06;50.50;101629.96;117284;1182;23545;-55
2021/09/29 13:13:40;;;;;;;162.80;111.40;;;;;;;22.18;50.54;101631.64;117266;1185;23561;-54
2021/09/29 13:16:10;;;;;;;100.40;67.60;;;;;;;22.28;50.58;101626.56;117385;1181;21885;-55
2021/09/29 13:38:30;;;;;;;17.00;6.50;;;;;;;22.72;50.46;101628.14;117294;1182;22899;-54
2021/09/29 13:40:58;;;;;;;14.10;6.70;;;;;;;22.67;50.20;101629.09;117315;1185;21923;-55
2021/09/29 13:43:27;;;;;;;17.90;6.40;;;;;;;22.62;50.14;101629.14;117273;1185;21856;-54
2021/09/29 13:45:55;;;;;;;38.70;17.50;;;;;;;22.45;50.19;101634.27;117356;1185;21882;-54
2021/09/29 13:48:24;;;;;;;106.80;41.20;;;;;;;22.39;50.24;101635.25;117287;1183;22626;-55
2021/09/29 13:50:52;;;;;;;318.70;49.30;;;;;;;22.32;50.29;101632.84;117391;1183;22760;-54
2021/09/29 13:53:22;;;;;;;250.50;101.50;;;;;;;22.29;50.24;101634.40;117284;1186;21874;-56
2021/09/29 13:55:50;;;;;;;126.20;50.20;;;;;;;22.26;50.27;101634.00;117343;1186;21865;-54
2021/09/29 14:14:14;;;;;;;14.50;8.00;;;;;;;22.19;50.26;101635.72;117278;1186;24202;-55
2021/09/29 14:15:26;;;;;;;167.30;148.30;;;;;;;22.14;50.29;101638.41;117155;1187;23570;-54
2021/09/29 14:34:36;;;;;;;79.00;56.00;;;;;;;22.11;50.12;101641.38;116982;1186;22941;-55
2021/09/29 14:37:04;;;;;;;194.60;129.20;;;;;;;22.10;50.00;101643.40;117084;1188;23662;-54
2021/09/29 14:39:33;;;;;;;121.30;80.20;;;;;;;22.09;50.01;101650.78;117172;1188;23544;-54